Time;durP1;ratioP1;P1;durP2;ratioP2;P2;SDS_P1;SDS_P2;PMS_P1;PMS_P2;Temp;Humidity;BMP_temperature;BMP_pressure;BME280_temperature;BME280_humidity;BME280_pressure;Samples;Min_cycle;Max_cycle;Signal;HPM_P1;HPM_P2
2022/08/13 07:56:03;;;;;;;4.13;2.25;;;;;;;;;;4967450;28;20069;-86
2022/08/13 08:00:39;;;;;;;5.30;2.08;;;;;;;;;;4897257;29;20060;-88
2022/08/13 08:47:37;;;;;;;3.75;2.28;;;;;;;;;;5027765;28;20522;-86
2022/08/13 09:01:40;;;;;;;3.28;1.70;;;;;;;;;;4990869;28;20042;-86
2022/08/13 14:27:57;;;;;;;4.90;3.03;;;;;;;;;;5055119;28;20071;-87
2022/08/13 14:30:55;;;;;;;6.22;2.97;;;;;;;;;;5048822;28;20049;-86
2022/08/13 14:33:46;;;;;;;4.93;3.00;;;;;;;;;;5030225;28;20059;-87
2022/08/13 14:36:34;;;;;;;4.68;3.35;;;;;;;;;;5029043;28;20075;-87
2022/08/13 14:39:18;;;;;;;10.82;3.08;;;;;;;;;;5046352;28;20045;-86
2022/08/13 14:42:27;;;;;;;;;;;;;;;;;;5073653;28;20040;-86
2022/08/13 14:45:46;;;;;;;7.35;3.50;;;;;;;;;;5059132;28;19974;-86
2022/08/13 14:50:20;;;;;;;4.43;3.08;;;;;;;;;;4941530;29;20087;-86
2022/08/13 14:53:05;;;;;;;7.45;3.58;;;;;;;;;;4960892;28;20403;-87
2022/08/13 14:56:02;;;;;;;6.70;3.50;;;;;;;;;;5006757;28;20603;-87
2022/08/13 15:00:17;;;;;;;7.18;4.30;;;;;;;;;;4977890;28;20085;-86
2022/08/13 15:09:05;;;;;;;5.05;3.50;;;;;;;;;;4990040;28;20101;-86
2022/08/13 15:13:58;;;;;;;9.32;4.32;;;;;;;;;;4970132;28;20042;-86
2022/08/13 15:33:01;;;;;;;4.50;2.85;;;;;;;;;;4946077;28;20465;-85
2022/08/13 15:47:20;;;;;;;5.45;2.78;;;;;;;;;;4953086;28;20078;-85
2022/08/13 15:51:54;;;;;;;5.45;2.50;;;;;;;;;;4914491;29;20194;-85
2022/08/13 16:01:20;;;;;;;6.63;3.10;;;;;;;;;;4926278;29;20130;-85
2022/08/13 16:33:23;;;;;;;6.60;2.75;;;;;;;;;;4914614;29;20047;-85
2022/08/13 16:45:58;;;;;;;3.58;1.95;;;;;;;;;;4940680;29;20052;-85
2022/08/13 16:48:45;;;;;;;3.70;2.10;;;;;;;;;;4886567;29;20088;-84
2022/08/13 16:51:32;;;;;;;4.65;2.47;;;;;;;;;;4898388;29;20052;-84
2022/08/13 16:58:53;;;;;;;5.35;2.10;;;;;;;;;;4891018;29;20644;-85
2022/08/13 17:01:22;;;;;;;6.18;2.13;;;;;;;;;;4876621;29;20064;-87
2022/08/13 18:07:09;;;;;;;7.22;3.63;;;;;;;;;;4994507;28;20105;-91
2022/08/13 18:11:11;;;;;;;10.10;5.60;;;;;;;;;;4973372;28;20057;-87
2022/08/13 18:56:08;;;;;;;7.25;3.05;;;;;;;;;;5014938;28;20050;-87
2022/08/13 19:05:06;;;;;;;4.20;2.53;;;;;;;;;;4935594;29;20044;-87
2022/08/13 21:03:50;;;;;;;6.90;2.92;;;;;;;;;;5026852;28;20068;-86
2022/08/13 21:06:24;;;;;;;6.75;3.00;;;;;;;;;;4987224;28;20061;-86
2022/08/13 21:08:58;;;;;;;7.18;3.13;;;;;;;;;;4988204;28;20077;-85
2022/08/13 21:11:31;;;;;;;4.57;3.08;;;;;;;;;;5024670;28;20064;-84
2022/08/13 21:14:16;;;;;;;5.60;3.20;;;;;;;;;;5011705;28;20056;-84
2022/08/13 21:16:58;;;;;;;7.10;3.70;;;;;;;;;;5021697;28;20045;-84
2022/08/13 21:19:33;;;;;;;6.20;2.90;;;;;;;;;;5025896;28;20056;-85
2022/08/13 21:22:34;;;;;;;4.68;3.00;;;;;;;;;;5019787;28;20049;-85
2022/08/13 21:25:49;;;;;;;8.50;3.28;;;;;;;;;;5031319;28;20049;-85
2022/08/13 21:28:36;;;;;;;8.40;3.05;;;;;;;;;;4984824;28;20055;-86
2022/08/13 21:31:37;;;;;;;7.93;3.60;;;;;;;;;;5005431;28;20045;-85
2022/08/13 21:34:22;;;;;;;6.60;3.58;;;;;;;;;;4967544;29;20036;-86
2022/08/13 21:42:58;;;;;;;6.95;3.20;;;;;;;;;;5019778;28;20050;-91
2022/08/13 21:45:26;;;;;;;9.50;4.13;;;;;;;;;;5012511;28;20057;-90
2022/08/13 21:47:59;;;;;;;7.63;3.50;;;;;;;;;;4999669;28;20049;-94
2022/08/13 21:50:30;;;;;;;5.85;3.40;;;;;;;;;;5013790;28;20141;-94
2022/08/13 21:53:02;;;;;;;6.18;3.30;;;;;;;;;;5013551;28;20073;-95
2022/08/13 21:55:55;;;;;;;5.30;3.00;;;;;;;;;;5013674;28;20050;-95
2022/08/13 21:58:24;;;;;;;8.75;3.15;;;;;;;;;;5016977;28;20568;-90
2022/08/13 22:00:55;;;;;;;8.20;3.03;;;;;;;;;;4999291;28;20037;-90
2022/08/13 22:03:25;;;;;;;4.78;3.15;;;;;;;;;;5014498;28;20077;-90
2022/08/13 22:06:14;;;;;;;4.43;3.10;;;;;;;;;;5014820;28;20057;-95
2022/08/13 22:09:11;;;;;;;5.25;3.00;;;;;;;;;;4986166;28;20651;-90
2022/08/13 22:12:09;;;;;;;6.95;3.22;;;;;;;;;;4996090;28;20056;-90
2022/08/13 22:14:47;;;;;;;4.30;2.90;;;;;;;;;;5009706;28;20079;-91
2022/08/13 22:17:16;;;;;;;8.38;3.35;;;;;;;;;;4999998;28;20068;-90
2022/08/13 22:19:51;;;;;;;6.43;3.60;;;;;;;;;;4982464;28;20144;-90
2022/08/13 22:22:20;;;;;;;5.25;3.35;;;;;;;;;;5014506;28;20073;-90
2022/08/13 22:24:48;;;;;;;5.10;3.10;;;;;;;;;;4995897;28;20055;-90
2022/08/13 22:27:15;;;;;;;4.90;2.83;;;;;;;;;;4996646;28;20057;-90
2022/08/13 22:32:31;;;;;;;4.40;2.67;;;;;;;;;;5014197;28;20152;-90
2022/08/13 22:34:59;;;;;;;4.53;3.15;;;;;;;;;;4997750;28;20221;-90
2022/08/13 22:37:31;;;;;;;5.05;2.60;;;;;;;;;;4997429;28;20055;-90
2022/08/13 22:40:10;;;;;;;4.30;2.50;;;;;;;;;;5000689;28;20053;-90
2022/08/13 22:43:06;;;;;;;7.70;2.95;;;;;;;;;;5018225;28;20053;-90
2022/08/13 22:45:59;;;;;;;7.15;2.90;;;;;;;;;;5024771;28;20093;-95
2022/08/13 22:48:36;;;;;;;7.38;2.90;;;;;;;;;;4999621;28;20042;-95
2022/08/13 22:51:14;;;;;;;6.10;2.65;;;;;;;;;;5002598;28;20056;-95
2022/08/13 22:53:46;;;;;;;5.35;2.63;;;;;;;;;;5015928;28;20053;-95
2022/08/13 22:56:26;;;;;;;4.43;2.95;;;;;;;;;;5033305;28;20053;-95
2022/08/13 22:59:27;;;;;;;4.68;2.63;;;;;;;;;;5026433;28;20615;-89
2022/08/13 23:02:02;;;;;;;5.05;2.97;;;;;;;;;;5014917;28;20049;-90
2022/08/13 23:04:38;;;;;;;5.05;2.83;;;;;;;;;;5009338;28;20053;-90
2022/08/13 23:07:08;;;;;;;4.55;2.47;;;;;;;;;;5009656;28;20052;-95
2022/08/13 23:09:41;;;;;;;7.15;2.70;;;;;;;;;;4981554;28;20068;-95
2022/08/13 23:12:11;;;;;;;4.60;2.70;;;;;;;;;;4996082;28;20049;-94
2022/08/13 23:15:05;;;;;;;4.38;2.50;;;;;;;;;;4983287;28;20395;-95
2022/08/13 23:17:37;;;;;;;6.03;3.00;;;;;;;;;;4998538;28;20148;-95
2022/08/13 23:20:11;;;;;;;6.47;2.85;;;;;;;;;;5035671;28;20508;-95
2022/08/13 23:22:52;;;;;;;3.50;2.30;;;;;;;;;;5005125;28;20053;-95
2022/08/13 23:25:20;;;;;;;4.88;2.65;;;;;;;;;;5019344;28;20049;-94
2022/08/13 23:27:48;;;;;;;5.53;2.90;;;;;;;;;;5026061;28;20099;-90
2022/08/13 23:30:17;;;;;;;4.28;2.85;;;;;;;;;;5004920;28;20573;-90
2022/08/13 23:32:46;;;;;;;5.50;2.65;;;;;;;;;;5008778;28;20139;-90
2022/08/13 23:35:26;;;;;;;5.95;3.00;;;;;;;;;;5020753;28;20055;-90
2022/08/13 23:38:00;;;;;;;5.57;2.67;;;;;;;;;;5016908;28;20053;-95
2022/08/13 23:40:29;;;;;;;3.80;2.72;;;;;;;;;;5019365;28;20053;-95
2022/08/13 23:42:57;;;;;;;6.53;2.78;;;;;;;;;;5019465;28;20049;-95
2022/08/13 23:45:49;;;;;;;4.78;2.90;;;;;;;;;;5010123;28;20185;-95
2022/08/13 23:48:24;;;;;;;4.60;2.60;;;;;;;;;;4998206;28;20144;-94
2022/08/13 23:50:52;;;;;;;4.57;2.60;;;;;;;;;;4999599;28;20053;-95
2022/08/13 23:53:26;;;;;;;8.10;2.60;;;;;;;;;;4983627;28;20069;-95
2022/08/13 23:55:55;;;;;;;5.80;2.60;;;;;;;;;;5000030;28;20060;-95
2022/08/13 23:58:24;;;;;;;6.05;2.50;;;;;;;;;;5019829;28;20053;-95
